• Join FlightAware (Why Join?)
  • Login
  • US Flag 
10:54PM EDT


 

Airport Tracker/Info


-or-


 

Live Flight TrackerFlight Track Log ✈ SWA484 ✈ 21-Jun-2013 ✈ KCLT - KBWI

Flight Track Log - Related Links

Times and Time Zones

All times are in EDT time to prevent confusion due to time zone crossing. See the SWA484 flight status page for this flight to view local times or setup timezone preferences in your user account.

Time Position Orientation Groundspeed Altitude Reporting Facility
EDT Latitude Longitude Course Direction KTS MPH feet Rate Location/Type
07:56AM 35.1950 -80.9356 173° South 151 174 1,500  Level Atlanta Center
07:56AM 35.1553 -80.9294 173° South 188 216 2,800 1,980 Climbing Atlanta Center
07:57AM 35.1017 -80.8756 141° Southeast 253 291 5,200 1,860 Climbing Atlanta Center
07:59AM 35.1022 -80.7358 90° East 306 352 8,000 2,100 Climbing Atlanta Center
08:00AM 35.1417 -80.6531 60° Northeast 280 322 10,800 2,760 Climbing Atlanta Center
08:01AM 35.1956 -80.5619 54° Northeast 309 356 13,600 1,560 Climbing Atlanta Center
08:02AM 35.2511 -80.4656 55° Northeast 338 389 14,000 180 Climbing Atlanta Center
08:03AM 35.3067 -80.3714 54° Northeast 345 397 14,000 1,380 Level Atlanta Center
08:04AM 35.3622 -80.2722 55° Northeast 345 397 16,800 2,520 Climbing Atlanta Center
08:07AM 35.4747 -79.9764 65° Northeast 371 427 23,000 2,460 Climbing Washington Center
08:08AM 35.5111 -79.8406 72° East 396 456 25,700 1,920 Climbing Washington Center
08:09AM 35.5447 -79.7097 72° East 403 464 27,000 1,500 Climbing Washington Center
08:10AM 35.5833 -79.5583 73° East 409 471 28,800 960 Climbing Washington Center
08:11AM 35.6144 -79.4372 72° East 413 475 29,000 60 Climbing Washington Center
08:12AM 35.6642 -79.3144 63° Northeast 413 475 29,000  Level Washington Center
08:13AM 35.7139 -79.1864 64° Northeast 407 468 29,000  Level Washington Center
08:14AM 35.7703 -79.0481 63° Northeast 407 468 29,000  Level Washington Center
08:15AM 35.8219 -78.9144 64° Northeast 412 474 29,000  Level Washington Center
08:16AM 35.8819 -78.7836 60° Northeast 426 490 29,000  Level Washington Center
08:17AM 35.9825 -78.6903 37° Northeast 426 490 29,000  Level Washington Center
08:18AM 36.0850 -78.6017 35° Northeast 431 496 29,000  Level Washington Center
08:19AM 36.1831 -78.5153 35° Northeast 437 503 29,000  Level Washington Center
08:20AM 36.2853 -78.4239 36° Northeast 442 509 29,000  Level Washington Center
08:21AM 36.3856 -78.3372 35° Northeast 442 509 29,000  Level Washington Center
08:22AM 36.4856 -78.2478 36° Northeast 442 509 29,000 -300 Level Washington Center
08:23AM 36.5814 -78.1578 37° Northeast 437 503 28,400 -540 Descending Washington Center
08:24AM 36.6686 -78.0778 36° Northeast 437 503 28,000 -240 Descending Washington Center
08:25AM 36.7664 -77.9903 36° Northeast 432 497 28,000  Level Washington Center
08:26AM 36.8661 -77.9025 35° Northeast 437 503 28,000 -180 Level Washington Center
08:27AM 36.9617 -77.8144 36° Northeast 437 503 27,700 -540 Descending Washington Center
08:28AM 37.0614 -77.7261 35° Northeast 437 503 27,000 -360 Descending Washington Center
08:29AM 37.1728 -77.6692 22° Northeast 432 497 27,000  Level Washington Center
08:30AM 37.2864 -77.6228 18° North 421 484 27,000  Level Washington Center
08:31AM 37.3997 -77.5733 19° North 421 484 27,000 -240 Level Washington Center
08:32AM 37.5153 -77.5242 19° North 427 491 26,600 -1,500 Descending Washington Center
08:33AM 37.6267 -77.4744 19° North 427 491 24,000 -1,860 Descending Washington Center
08:34AM 37.7339 -77.4247 20° North 422 486 23,000 -540 Descending Washington Center
08:35AM 37.8389 -77.3797 19° North 408 470 23,000  Level Washington Center
08:36AM 37.9417 -77.3347 19° North 401 461 23,000 -600 Level Washington Center
08:37AM 38.0444 -77.2925 18° North 389 448 21,900 -1,500 Descending Washington Center
08:38AM 38.1450 -77.2472 19° North 384 442 20,000 -1,980 Descending Washington Center
08:39AM 38.2375 -77.2042 20° North 378 435 18,100 -1,920 Descending Washington Center
08:40AM 38.3319 -77.1614 20° North 360 414 16,200 -1,620 Descending Washington Center
08:41AM 38.4181 -77.0994 29° Northeast 351 404 14,900 -1,740 Descending Washington Center
08:42AM 38.4881 -77.0133 44° Northeast 344 396 12,800 -1,500 Descending Washington Center
08:43AM 38.5556 -76.9297 44° Northeast 338 389 12,000 -1,140 Descending Washington Center
08:44AM 38.6192 -76.8486 45° Northeast 332 382 10,600 -1,200 Descending Washington Center
08:45AM 38.6803 -76.7750 43° Northeast 319 367 9,700 -1,140 Descending Washington Center
08:46AM 38.7667 -76.6167 55° Northeast 271 312 7,600 -1,320 Descending Potomac TRACON
08:47AM 38.8000 -76.5500 57° Northeast 272 313 6,200 -1,200 Descending Potomac TRACON
08:48AM 38.8667 -76.5500 360° North 271 312 5,400 -960 Descending Potomac TRACON
08:49AM 38.9333 -76.5833 339° North 272 313 4,400 -780 Descending Potomac TRACON
08:50AM 38.9833 -76.6333 322° Northwest 273 314 4,000 -180 Descending Potomac TRACON
08:51AM 39.0167 -76.7167 297° West 263 303 4,100  Climbing Potomac TRACON
08:52AM 39.0667 -76.7833 314° West 246 283 4,000  Descending Potomac TRACON
08:53AM 39.0833 -76.8500 288° West 231 266 4,100  Climbing Potomac TRACON
08:54AM 39.1000 -76.9333 284° West 227 261 4,100 -60 Level Potomac TRACON
08:55AM 39.1333 -76.9833 311° West 214 246 4,000 -480 Descending Potomac TRACON
08:56AM 39.2000 -76.9833 360° North 215 247 3,200 -780 Descending Potomac TRACON
08:57AM 39.1833 -76.9167 108° East 201 231 2,500 -420 Descending Potomac TRACON
08:58AM 39.1833 -76.8667 90° East 183 211 2,500 -480 Level Potomac TRACON
08:59AM 39.1833 -76.8000 90° East 170 196 1,700 -780 Descending Potomac TRACON
09:00AM 39.1833 -76.7500 90° East 139 160 1,000 -720 Descending Potomac TRACON
09:01AM 39.1833 -76.7000 90° East 137 158 300 -720 Descending Potomac TRACON